Time;durP1;ratioP1;P1;durP2;ratioP2;P2;SDS_P1;SDS_P2;PMS_P1;PMS_P2;Temp;Humidity;BMP_temperature;BMP_pressure;BME280_temperature;BME280_humidity;BME280_pressure;Samples;Min_cycle;Max_cycle;Signal;HPM_P1;HPM_P2
2022/05/06 00:02:08;;;;;;;23.27;18.30;;;9.80;99.90;;;;;;4928872;29;20047;-94
2022/05/06 00:04:35;;;;;;;25.42;18.13;;;9.70;99.90;;;;;;4977630;29;20050;-96
2022/05/06 00:07:04;;;;;;;25.50;18.88;;;9.80;99.90;;;;;;4924208;29;20052;-95
2022/05/06 00:09:30;;;;;;;22.35;18.02;;;9.70;99.90;;;;;;4923690;29;20064;-95
2022/05/06 00:11:56;;;;;;;24.73;19.25;;;9.70;99.90;;;;;;4916843;29;20060;-95
2022/05/06 00:14:23;;;;;;;24.02;18.20;;;9.70;99.90;;;;;;4912561;29;20055;-94
2022/05/06 00:16:51;;;;;;;24.85;19.13;;;9.70;99.90;;;;;;4935443;29;20044;-95
2022/05/06 00:19:19;;;;;;;25.48;18.98;;;9.70;99.90;;;;;;4906865;29;20048;-95
2022/05/06 00:21:48;;;;;;;23.85;18.95;;;9.70;99.90;;;;;;4909165;29;20048;-95
2022/05/06 00:24:14;;;;;;;22.90;17.08;;;9.60;99.90;;;;;;4910229;29;20020;-94
2022/05/06 00:26:41;;;;;;;23.17;18.45;;;9.50;99.90;;;;;;4909178;29;20056;-95
2022/05/06 00:29:07;;;;;;;24.83;19.35;;;9.50;99.90;;;;;;4923533;29;20030;-94
2022/05/06 00:31:34;;;;;;;24.42;19.60;;;9.50;99.90;;;;;;4922148;29;20036;-94
2022/05/06 00:34:00;;;;;;;26.40;19.95;;;9.50;99.90;;;;;;4934088;29;20036;-94
2022/05/06 00:36:27;;;;;;;25.42;20.55;;;9.50;99.90;;;;;;4902515;29;20045;-94
2022/05/06 00:38:54;;;;;;;24.50;18.48;;;9.50;99.90;;;;;;4947410;29;20075;-94
2022/05/06 00:41:20;;;;;;;27.60;19.73;;;9.40;99.90;;;;;;4955697;29;20044;-95
2022/05/06 00:43:46;;;;;;;25.75;19.17;;;9.40;99.90;;;;;;4966197;29;20039;-95
2022/05/06 00:46:17;;;;;;;25.17;19.48;;;9.30;99.90;;;;;;4952722;29;20056;-95
2022/05/06 00:48:46;;;;;;;25.88;19.00;;;9.30;99.90;;;;;;4973280;28;20078;-95
2022/05/06 00:51:12;;;;;;;25.45;20.13;;;9.20;99.90;;;;;;4959578;29;20067;-95
2022/05/06 00:53:39;;;;;;;26.17;20.75;;;9.20;99.90;;;;;;4980138;28;20035;-94
2022/05/06 00:56:09;;;;;;;26.80;20.00;;;9.10;99.90;;;;;;4941594;29;20048;-94
2022/05/06 00:58:35;;;;;;;25.58;20.08;;;9.10;99.90;;;;;;4972562;29;20078;-95
2022/05/06 01:01:05;;;;;;;25.55;20.27;;;9.00;99.90;;;;;;4951354;29;20047;-94
2022/05/06 01:03:32;;;;;;;28.48;21.27;;;9.00;99.90;;;;;;4954470;29;20066;-95
2022/05/06 01:06:02;;;;;;;23.85;19.55;;;9.00;99.90;;;;;;4973160;29;20047;-95
2022/05/06 01:08:29;;;;;;;27.20;20.25;;;8.90;99.90;;;;;;4957380;29;20035;-95
2022/05/06 01:10:55;;;;;;;24.67;20.27;;;8.90;99.90;;;;;;4944068;29;20047;-94
2022/05/06 01:13:21;;;;;;;25.85;19.83;;;8.80;99.90;;;;;;4956779;29;20049;-94
2022/05/06 01:15:48;;;;;;;27.98;21.35;;;8.80;99.90;;;;;;4945417;29;20119;-93
2022/05/06 01:18:13;;;;;;;26.08;19.80;;;8.80;99.90;;;;;;4939933;29;20098;-93
2022/05/06 01:20:48;;;;;;;25.02;19.38;;;8.80;99.90;;;;;;4943875;29;20047;-95
2022/05/06 01:23:14;;;;;;;22.10;14.23;;;8.80;99.90;;;;;;4947403;29;20159;-95
2022/05/06 01:25:41;;;;;;;21.63;18.35;;;8.60;99.90;;;;;;4967788;29;20043;-95
2022/05/06 01:28:10;;;;;;;25.63;19.58;;;8.60;99.90;;;;;;4943382;29;20036;-93
2022/05/06 01:30:40;;;;;;;22.20;14.35;;;8.70;99.90;;;;;;4927182;29;20077;-94
2022/05/06 01:33:11;;;;;;;24.73;18.05;;;8.60;99.90;;;;;;4941394;29;20043;-94
2022/05/06 01:35:44;;;;;;;25.15;18.40;;;8.70;99.90;;;;;;4932914;29;20043;-94
2022/05/06 01:38:15;;;;;;;24.40;18.52;;;8.60;99.90;;;;;;4937873;29;20043;-93
2022/05/06 01:40:52;;;;;;;24.27;18.27;;;8.60;99.90;;;;;;4956034;29;20483;-94
2022/05/06 01:43:20;;;;;;;25.63;19.75;;;8.60;99.90;;;;;;4956910;29;20058;-94
2022/05/06 01:45:48;;;;;;;23.98;18.42;;;8.60;99.90;;;;;;4924370;29;20067;-93
2022/05/06 01:48:16;;;;;;;21.95;13.32;;;8.50;99.90;;;;;;4941080;29;20043;-93
2022/05/06 01:50:42;;;;;;;23.15;10.32;;;8.40;99.90;;;;;;4939699;29;20075;-93
2022/05/06 01:53:09;;;;;;;23.70;19.67;;;8.30;99.90;;;;;;4956846;29;20047;-94
2022/05/06 01:55:35;;;;;;;25.00;19.30;;;8.30;99.90;;;;;;4951732;29;20140;-93
2022/05/06 01:58:00;;;;;;;26.83;19.58;;;8.30;99.90;;;;;;4932401;29;20524;-94
2022/05/06 02:00:26;;;;;;;26.98;20.23;;;8.30;99.90;;;;;;4955564;29;20484;-93
2022/05/06 02:02:54;;;;;;;26.77;20.00;;;8.30;99.90;;;;;;4955918;29;20039;-95
2022/05/06 02:05:20;;;;;;;24.80;11.43;;;8.30;99.90;;;;;;4938684;29;20047;-94
2022/05/06 02:07:53;;;;;;;24.92;13.57;;;8.20;99.90;;;;;;4956341;28;20121;-95
2022/05/06 02:10:21;;;;;;;25.95;15.18;;;8.10;99.90;;;;;;4950871;29;20432;-94
2022/05/06 02:12:47;;;;;;;25.92;20.48;;;8.10;99.90;;;;;;4938582;29;20102;-94
2022/05/06 02:15:14;;;;;;;27.00;20.83;;;8.20;99.90;;;;;;4929555;29;20040;-93
2022/05/06 02:17:41;;;;;;;25.38;20.67;;;8.20;99.90;;;;;;4922190;29;20043;-94
2022/05/06 02:20:08;;;;;;;22.83;12.38;;;8.20;99.90;;;;;;4954886;29;20094;-94
2022/05/06 02:22:36;;;;;;;27.30;19.83;;;8.10;99.90;;;;;;4955580;29;20058;-93
2022/05/06 02:25:04;;;;;;;25.45;19.42;;;8.20;99.90;;;;;;4932266;29;20058;-94
2022/05/06 02:27:31;;;;;;;26.40;20.40;;;8.20;99.90;;;;;;4953960;29;20054;-94
2022/05/06 02:35:27;;;;;;;23.63;14.68;;;8.10;99.90;;;;;;4959967;29;20086;-93
2022/05/06 02:37:52;;;;;;;24.88;20.20;;;7.90;99.90;;;;;;4956639;29;20132;-94
2022/05/06 02:40:18;;;;;;;23.08;13.05;;;8.00;99.90;;;;;;4956167;29;20516;-94
2022/05/06 02:42:43;;;;;;;23.80;11.70;;;8.00;99.90;;;;;;4951516;29;20184;-93
2022/05/06 02:45:10;;;;;;;19.50;10.50;;;7.90;99.90;;;;;;4944714;29;20069;-94
2022/05/06 02:47:36;;;;;;;26.65;21.52;;;7.80;99.90;;;;;;4966893;28;20079;-93
2022/05/06 02:50:02;;;;;;;21.23;11.23;;;7.90;99.90;;;;;;4919680;29;20131;-93
2022/05/06 02:52:28;;;;;;;25.13;19.88;;;7.80;99.90;;;;;;4928082;29;20050;-94
2022/05/06 02:54:53;;;;;;;24.95;19.58;;;7.80;99.90;;;;;;4953780;29;20047;-94
2022/05/06 02:57:19;;;;;;;27.45;19.80;;;7.90;99.90;;;;;;4949669;29;20043;-93
2022/05/06 02:59:45;;;;;;;22.15;10.70;;;7.90;99.90;;;;;;4948000;29;20046;-94
2022/05/06 03:02:10;;;;;;;23.90;15.40;;;7.80;99.90;;;;;;4924999;29;20457;-92
2022/05/06 03:04:36;;;;;;;27.40;20.02;;;7.80;99.90;;;;;;4918820;29;20043;-93
2022/05/06 03:07:06;;;;;;;25.10;20.73;;;7.90;99.90;;;;;;4936281;29;20051;-93
2022/05/06 03:09:33;;;;;;;22.33;12.15;;;7.90;99.90;;;;;;4960819;29;20054;-93
2022/05/06 03:11:58;;;;;;;24.25;19.00;;;7.80;99.90;;;;;;4922563;29;20052;-92
2022/05/06 03:14:25;;;;;;;25.17;10.93;;;7.80;99.90;;;;;;4953239;29;20027;-93
2022/05/06 03:16:50;;;;;;;22.40;18.02;;;7.70;99.90;;;;;;4954851;29;20055;-93
2022/05/06 03:19:16;;;;;;;25.10;18.38;;;7.70;99.90;;;;;;4944018;28;20043;-93
2022/05/06 03:21:43;;;;;;;21.58;13.57;;;7.70;99.90;;;;;;4927100;29;20039;-93
2022/05/06 03:24:08;;;;;;;21.35;9.75;;;7.60;99.90;;;;;;4936131;29;20309;-93
2022/05/06 03:26:34;;;;;;;22.75;12.77;;;7.50;99.90;;;;;;4951696;29;20103;-93
2022/05/06 03:28:59;;;;;;;22.35;11.55;;;7.40;99.90;;;;;;4948969;29;20047;-93
2022/05/06 03:31:28;;;;;;;25.00;18.58;;;7.40;99.90;;;;;;4952341;29;20050;-93
2022/05/06 03:33:54;;;;;;;24.27;18.90;;;7.40;99.90;;;;;;4936729;29;20400;-93
2022/05/06 03:36:21;;;;;;;22.15;11.05;;;7.40;99.90;;;;;;4946451;29;20080;-94
2022/05/06 03:38:46;;;;;;;21.88;14.10;;;7.30;99.90;;;;;;4941043;29;20058;-93
2022/05/06 03:41:12;;;;;;;22.02;14.05;;;7.30;99.90;;;;;;4945759;29;20130;-92
2022/05/06 03:43:38;;;;;;;22.83;14.23;;;7.30;99.90;;;;;;4950990;29;20043;-92
2022/05/06 03:46:03;;;;;;;24.83;15.45;;;7.30;99.90;;;;;;4951921;29;20051;-92
2022/05/06 03:48:29;;;;;;;28.60;20.90;;;7.30;99.90;;;;;;4952703;29;20054;-93
2022/05/06 03:53:39;;;;;;;22.65;11.23;;;7.40;99.90;;;;;;4950464;29;20062;-94
2022/05/06 03:56:05;;;;;;;22.90;14.10;;;7.30;99.90;;;;;;4938820;29;20044;-92
2022/05/06 03:58:32;;;;;;;27.27;17.60;;;7.30;99.90;;;;;;4946017;29;20043;-92
2022/05/06 04:00:58;;;;;;;21.67;13.98;;;7.30;99.90;;;;;;4953629;29;20122;-93
2022/05/06 04:03:23;;;;;;;25.65;14.13;;;7.30;99.90;;;;;;4953118;29;20082;-93
2022/05/06 04:05:49;;;;;;;25.95;17.65;;;7.30;99.90;;;;;;4946742;29;20127;-92
2022/05/06 04:08:14;;;;;;;30.80;23.23;;;7.30;99.90;;;;;;4950879;29;20899;-92
2022/05/06 04:10:40;;;;;;;23.92;14.10;;;7.40;99.90;;;;;;4935726;29;20051;-91
2022/05/06 04:13:06;;;;;;;28.63;22.77;;;7.40;99.90;;;;;;4952474;29;20498;-93
2022/05/06 04:15:34;;;;;;;23.42;13.75;;;7.50;99.90;;;;;;4948818;29;20467;-92
2022/05/06 04:18:01;;;;;;;29.85;22.65;;;7.50;99.90;;;;;;4948430;29;20051;-93
2022/05/06 04:23:29;;;;;;;24.45;14.18;;;7.60;99.90;;;;;;4943506;29;20043;-93
2022/05/06 04:26:06;;;;;;;28.63;21.58;;;7.60;99.90;;;;;;4936147;29;20051;-94
2022/05/06 04:28:33;;;;;;;26.60;21.23;;;7.60;99.90;;;;;;4947237;29;20050;-93
2022/05/06 04:30:59;;;;;;;26.23;14.98;;;7.60;99.90;;;;;;4951351;28;20118;-92
2022/05/06 04:33:26;;;;;;;25.17;13.98;;;7.60;99.90;;;;;;4946643;29;20032;-92
2022/05/06 04:35:53;;;;;;;26.40;20.17;;;7.60;99.90;;;;;;4921095;29;20047;-92
2022/05/06 04:38:19;;;;;;;26.33;16.33;;;7.70;99.90;;;;;;4938166;29;20043;-92
2022/05/06 04:40:45;;;;;;;28.70;20.80;;;7.70;99.90;;;;;;4951581;29;20044;-93
2022/05/06 04:43:11;;;;;;;27.20;21.42;;;7.70;99.90;;;;;;4956465;29;20047;-90
2022/05/06 04:45:40;;;;;;;30.50;22.02;;;7.80;99.90;;;;;;4942131;29;20043;-89
2022/05/06 04:48:08;;;;;;;24.65;15.23;;;7.80;99.90;;;;;;4942131;29;20452;-91
2022/05/06 04:50:35;;;;;;;25.13;14.50;;;7.80;99.90;;;;;;4938374;29;20095;-91
2022/05/06 04:53:01;;;;;;;28.17;22.27;;;7.80;99.90;;;;;;4953068;29;20049;-90
2022/05/06 04:55:27;;;;;;;26.60;14.30;;;7.90;99.90;;;;;;4935999;29;20396;-90
2022/05/06 04:57:53;;;;;;;27.35;21.52;;;7.80;99.90;;;;;;4953441;29;20054;-91
2022/05/06 05:00:20;;;;;;;24.55;14.20;;;7.90;99.90;;;;;;4945983;28;20485;-91
2022/05/06 05:02:46;;;;;;;29.83;23.40;;;7.90;99.90;;;;;;4936069;29;20052;-91
2022/05/06 05:05:11;;;;;;;28.83;18.65;;;8.00;99.90;;;;;;4949063;29;20098;-91
2022/05/06 05:07:37;;;;;;;26.50;17.77;;;8.00;99.90;;;;;;4952465;29;20440;-90
2022/05/06 05:10:03;;;;;;;29.98;23.75;;;8.00;99.90;;;;;;4931981;29;20485;-91
2022/05/06 05:12:31;;;;;;;31.90;22.65;;;8.10;99.90;;;;;;4949997;29;20051;-92
2022/05/06 05:14:56;;;;;;;27.10;22.10;;;8.20;99.90;;;;;;4958791;28;20051;-88
2022/05/06 05:17:22;;;;;;;27.10;16.67;;;8.30;99.90;;;;;;4967091;28;20070;-90
2022/05/06 05:19:47;;;;;;;24.83;17.20;;;8.30;99.90;;;;;;4935237;29;20047;-89
2022/05/06 05:22:13;;;;;;;26.80;21.23;;;8.40;99.90;;;;;;4950261;29;20047;-88
2022/05/06 05:24:39;;;;;;;30.80;23.65;;;8.50;99.90;;;;;;4951079;29;20042;-89
2022/05/06 05:27:04;;;;;;;40.58;30.10;;;8.50;99.90;;;;;;4949828;29;20133;-93
2022/05/06 05:29:30;;;;;;;42.92;30.90;;;8.60;99.90;;;;;;4947375;29;20075;-90
2022/05/06 05:31:56;;;;;;;41.58;31.27;;;8.60;99.90;;;;;;4933302;29;20551;-92
2022/05/06 05:34:49;;;;;;;40.53;30.85;;;8.60;99.90;;;;;;4935906;29;20453;-92
2022/05/06 05:37:15;;;;;;;37.33;19.80;;;8.70;99.90;;;;;;4937665;29;20446;-92
2022/05/06 05:39:41;;;;;;;38.35;28.75;;;8.60;99.90;;;;;;4936804;29;20072;-90
2022/05/06 05:42:07;;;;;;;40.88;27.25;;;8.80;99.90;;;;;;4948472;29;20039;-89
2022/05/06 05:50:29;;;;;;;36.53;25.80;;;9.00;99.90;;;;;;4950921;29;20039;-89
2022/05/06 05:52:55;;;;;;;40.40;24.60;;;9.00;99.90;;;;;;4948116;29;20051;-91
2022/05/06 05:55:24;;;;;;;32.85;23.65;;;9.10;99.90;;;;;;4951126;29;20050;-91
2022/05/06 05:57:50;;;;;;;28.00;16.13;;;9.10;99.90;;;;;;4950916;29;20044;-91
2022/05/06 06:00:16;;;;;;;33.78;22.55;;;9.20;99.90;;;;;;4949598;29;20131;-91
2022/05/06 06:02:41;;;;;;;31.95;22.05;;;9.30;99.90;;;;;;4950102;29;20051;-92
2022/05/06 06:05:27;;;;;;;30.00;22.40;;;9.40;99.90;;;;;;4961253;29;20046;-90
2022/05/06 06:07:55;;;;;;;33.50;23.35;;;9.50;99.90;;;;;;4957154;29;20058;-92
2022/05/06 06:10:21;;;;;;;30.13;22.80;;;9.50;99.90;;;;;;4960443;29;20040;-92
2022/05/06 06:12:46;;;;;;;30.67;21.77;;;9.70;99.90;;;;;;4945945;29;20484;-92
2022/05/06 06:15:12;;;;;;;42.60;25.20;;;9.70;99.90;;;;;;4956557;28;20052;-92
2022/05/06 06:17:38;;;;;;;36.35;23.85;;;9.80;99.90;;;;;;4962706;28;20055;-91
2022/05/06 06:20:15;;;;;;;31.60;22.65;;;9.90;99.90;;;;;;4935530;29;20074;-92
2022/05/06 06:22:41;;;;;;;33.50;24.48;;;9.90;99.90;;;;;;4915230;29;20062;-93
2022/05/06 06:25:07;;;;;;;39.78;22.38;;;10.00;99.90;;;;;;4955873;29;20043;-92
2022/05/06 06:27:34;;;;;;;29.65;20.83;;;10.10;99.90;;;;;;4932971;29;20051;-91
2022/05/06 06:30:00;;;;;;;37.45;20.30;;;10.20;99.90;;;;;;4946028;29;20090;-94
2022/05/06 06:32:25;;;;;;;41.85;21.33;;;10.30;99.90;;;;;;4931278;29;20040;-90
2022/05/06 06:35:18;;;;;;;74.80;22.42;;;10.20;99.90;;;;;;4941489;29;20047;-90
2022/05/06 06:37:44;;;;;;;43.40;23.15;;;10.20;99.90;;;;;;4949069;29;20444;-91
2022/05/06 06:40:10;;;;;;;33.47;21.63;;;10.20;99.90;;;;;;4941446;29;20039;-89
2022/05/06 06:42:37;;;;;;;44.28;24.48;;;10.30;99.90;;;;;;4946954;29;20074;-93
2022/05/06 06:45:02;;;;;;;46.17;23.98;;;10.40;99.90;;;;;;4935319;29;20036;-93
2022/05/06 06:47:29;;;;;;;36.92;23.20;;;10.40;99.90;;;;;;4932249;29;20039;-91
2022/05/06 06:49:58;;;;;;;41.03;25.58;;;10.60;99.90;;;;;;4952604;29;20070;-92
2022/05/06 06:52:24;;;;;;;38.17;24.95;;;10.70;99.90;;;;;;4952357;28;20050;-93
2022/05/06 06:54:50;;;;;;;45.38;27.27;;;10.80;99.90;;;;;;4952754;28;20031;-93
2022/05/06 06:57:17;;;;;;;60.47;29.40;;;10.90;99.90;;;;;;4945673;29;20409;-92
2022/05/06 06:59:43;;;;;;;64.38;31.05;;;10.90;99.90;;;;;;4952715;29;20074;-91
2022/05/06 07:02:08;;;;;;;51.53;32.03;;;10.90;99.90;;;;;;4938059;29;20106;-92
2022/05/06 07:04:34;;;;;;;46.90;31.15;;;11.00;99.90;;;;;;4950734;29;20078;-93
2022/05/06 07:12:29;;;;;;;52.58;33.70;;;11.10;99.90;;;;;;4950431;29;20051;-91
2022/05/06 07:14:55;;;;;;;46.20;33.10;;;11.20;99.90;;;;;;4948575;29;20051;-91
2022/05/06 07:17:21;;;;;;;52.13;33.40;;;11.30;99.90;;;;;;4949665;28;20086;-93
2022/05/06 07:19:51;;;;;;;46.80;33.38;;;11.40;99.90;;;;;;4936025;29;20126;-90
2022/05/06 07:22:17;;;;;;;52.42;33.85;;;11.40;99.90;;;;;;4935589;29;20050;-91
2022/05/06 07:24:43;;;;;;;50.28;35.00;;;11.50;99.90;;;;;;4950089;29;20046;-91
2022/05/06 07:27:09;;;;;;;45.65;33.95;;;11.60;99.90;;;;;;4934968;29;20047;-93
2022/05/06 07:29:34;;;;;;;46.40;35.00;;;11.70;99.90;;;;;;4916554;29;20043;-92
2022/05/06 07:32:00;;;;;;;45.25;33.50;;;11.80;99.90;;;;;;4954396;29;20551;-94
2022/05/06 07:34:48;;;;;;;44.08;33.33;;;12.00;99.90;;;;;;4935839;29;20040;-94
2022/05/06 07:37:17;;;;;;;45.63;33.72;;;12.00;99.90;;;;;;4938799;29;20048;-94
2022/05/06 07:39:43;;;;;;;42.60;30.92;;;12.10;99.90;;;;;;4952136;29;20091;-94
2022/05/06 07:42:10;;;;;;;39.55;30.00;;;12.20;99.90;;;;;;4951958;29;20086;-93
2022/05/06 07:44:36;;;;;;;39.30;30.02;;;12.30;99.90;;;;;;4936186;29;20129;-94
2022/05/06 07:47:02;;;;;;;39.50;30.13;;;12.40;99.90;;;;;;4948189;29;20466;-94
2022/05/06 07:49:44;;;;;;;36.33;28.02;;;12.50;99.90;;;;;;4933327;29;20579;-93
2022/05/06 07:52:10;;;;;;;36.75;27.45;;;12.50;99.90;;;;;;4950304;28;20071;-91
2022/05/06 07:54:36;;;;;;;37.40;28.25;;;12.60;99.90;;;;;;4948506;29;20106;-92
2022/05/06 07:57:02;;;;;;;39.03;28.05;;;12.50;99.90;;;;;;4934221;29;20049;-90
2022/05/06 07:59:27;;;;;;;39.00;27.83;;;12.60;99.90;;;;;;4951879;29;20509;-92
2022/05/06 08:04:37;;;;;;;39.90;28.70;;;12.80;99.90;;;;;;4955913;28;20086;-92
2022/05/06 08:07:07;;;;;;;36.30;27.65;;;12.90;99.90;;;;;;4954164;29;20141;-90
2022/05/06 08:09:34;;;;;;;37.13;27.73;;;12.90;99.90;;;;;;4956298;29;20059;-91
2022/05/06 08:12:00;;;;;;;36.97;27.90;;;13.10;99.90;;;;;;4955962;29;20138;-91
2022/05/06 08:14:25;;;;;;;38.97;28.73;;;13.20;99.90;;;;;;4959650;29;20071;-92
2022/05/06 08:16:51;;;;;;;33.20;24.45;;;13.20;99.90;;;;;;4950758;29;20059;-91
2022/05/06 08:19:18;;;;;;;32.95;24.33;;;13.30;99.90;;;;;;4954305;29;20082;-91
2022/05/06 08:21:44;;;;;;;27.90;20.88;;;13.50;99.90;;;;;;4953863;29;20078;-91
2022/05/06 08:24:09;;;;;;;26.58;20.65;;;13.50;99.90;;;;;;4954944;29;20460;-90
2022/05/06 08:26:36;;;;;;;25.50;20.42;;;13.70;99.90;;;;;;4955382;29;20039;-91
2022/05/06 08:29:02;;;;;;;26.05;20.30;;;13.60;99.90;;;;;;4954961;28;20048;-89
2022/05/06 08:31:28;;;;;;;25.80;19.73;;;13.70;99.90;;;;;;4954346;29;20114;-91
2022/05/06 08:33:54;;;;;;;24.67;19.13;;;13.90;99.90;;;;;;4955255;29;20046;-89
2022/05/06 08:36:20;;;;;;;23.35;19.42;;;14.00;99.90;;;;;;4955949;29;20098;-89
2022/05/06 08:38:48;;;;;;;23.00;17.10;;;14.10;99.90;;;;;;4953964;29;20043;-90
2022/05/06 08:41:15;;;;;;;22.55;17.42;;;14.20;99.90;;;;;;4957606;29;20085;-92
2022/05/06 08:43:41;;;;;;;20.23;16.02;;;14.20;99.90;;;;;;4955187;29;20047;-90
2022/05/06 08:51:47;;;;;;;18.88;14.23;;;14.30;99.90;;;;;;4887944;29;20052;-94
2022/05/06 08:54:13;;;;;;;17.85;14.00;;;14.20;99.90;;;;;;4882200;29;20133;-90
2022/05/06 08:56:38;;;;;;;16.85;13.60;;;14.30;99.90;;;;;;4878686;29;20140;-91
2022/05/06 08:59:04;;;;;;;17.55;13.98;;;14.30;99.90;;;;;;4879972;29;20065;-91
2022/05/06 09:01:29;;;;;;;16.38;13.00;;;14.40;99.90;;;;;;4881411;29;20060;-91
2022/05/06 09:03:56;;;;;;;17.67;13.40;;;14.50;99.90;;;;;;4897902;29;20047;-90
2022/05/06 09:06:25;;;;;;;18.02;12.18;;;14.60;99.90;;;;;;4880303;29;20052;-91
2022/05/06 09:08:52;;;;;;;15.73;12.73;;;14.70;99.90;;;;;;4898812;29;20145;-92
2022/05/06 09:14:06;;;;;;;17.00;12.63;;;14.80;99.90;;;;;;4885522;29;20048;-93
2022/05/06 09:16:40;;;;;;;15.23;11.63;;;14.70;99.90;;;;;;4882785;29;20192;-90
2022/05/06 09:19:19;;;;;;;13.98;10.98;;;14.80;99.90;;;;;;4893985;29;20056;-92
2022/05/06 09:22:18;;;;;;;15.23;11.68;;;14.90;99.90;;;;;;4879866;29;20100;-89
2022/05/06 09:24:47;;;;;;;13.25;10.05;;;15.00;99.90;;;;;;4895399;29;20040;-90
2022/05/06 09:27:18;;;;;;;14.15;10.88;;;15.20;99.90;;;;;;4885856;29;20143;-89
2022/05/06 09:29:46;;;;;;;14.73;11.33;;;15.20;99.90;;;;;;4938646;29;20063;-94
2022/05/06 09:32:12;;;;;;;14.88;11.15;;;15.40;99.90;;;;;;4955465;29;20047;-92
2022/05/06 09:34:39;;;;;;;15.98;11.55;;;15.50;99.90;;;;;;4963539;28;20043;-91
2022/05/06 09:37:05;;;;;;;13.32;10.10;;;15.70;99.90;;;;;;4954075;29;20043;-90
2022/05/06 09:39:31;;;;;;;13.07;10.23;;;15.90;99.90;;;;;;4955145;29;20082;-91
2022/05/06 09:42:04;;;;;;;14.50;10.63;;;16.00;99.90;;;;;;4955262;29;20055;-88
2022/05/06 09:44:31;;;;;;;15.05;11.18;;;16.10;99.90;;;;;;4951735;29;20400;-89
2022/05/06 09:47:26;;;;;;;13.82;10.77;;;16.20;99.90;;;;;;4939462;29;20417;-88
2022/05/06 09:49:53;;;;;;;14.75;11.55;;;16.40;99.90;;;;;;4915842;29;20154;-92
2022/05/06 09:52:19;;;;;;;13.68;10.73;;;16.60;99.90;;;;;;4953140;29;20117;-88
2022/05/06 09:54:46;;;;;;;13.82;10.32;;;16.70;99.90;;;;;;4951957;29;20047;-89
2022/05/06 09:57:13;;;;;;;14.63;11.40;;;17.00;99.90;;;;;;4953183;29;20097;-89
2022/05/06 09:59:39;;;;;;;13.75;10.70;;;17.10;99.90;;;;;;4952468;29;20049;-89
2022/05/06 10:02:06;;;;;;;14.15;10.45;;;17.20;99.90;;;;;;4951506;29;20047;-89
2022/05/06 10:04:33;;;;;;;10.52;7.40;;;17.30;99.90;;;;;;4948665;29;20122;-86
2022/05/06 10:07:00;;;;;;;11.55;7.50;;;17.20;99.90;;;;;;4951350;29;20047;-91
2022/05/06 10:09:27;;;;;;;10.52;6.75;;;17.10;99.90;;;;;;4953160;28;20125;-92
2022/05/06 10:11:56;;;;;;;8.57;5.65;;;17.00;99.90;;;;;;4945860;29;20431;-89
2022/05/06 10:14:22;;;;;;;9.32;6.13;;;17.10;99.90;;;;;;4938103;29;20388;-93
2022/05/06 10:16:48;;;;;;;10.75;7.68;;;17.10;99.90;;;;;;4952736;29;20105;-95
2022/05/06 10:19:33;;;;;;;9.77;7.45;;;17.20;99.90;;;;;;4970124;29;20101;-91
2022/05/06 10:21:58;;;;;;;11.02;8.10;;;17.20;99.90;;;;;;4955193;29;20401;-92
2022/05/06 10:24:24;;;;;;;9.52;6.85;;;17.10;99.90;;;;;;4958461;29;20043;-94
2022/05/06 10:26:53;;;;;;;9.93;6.78;;;17.10;99.90;;;;;;4956402;28;20381;-95
2022/05/06 10:32:52;;;;;;;10.93;7.95;;;17.10;99.90;;;;;;4955445;29;20134;-93
2022/05/06 10:35:18;;;;;;;10.38;6.55;;;17.00;99.90;;;;;;4954856;29;20039;-96
2022/05/06 10:37:45;;;;;;;8.95;6.68;;;17.10;99.90;;;;;;4952925;29;20043;-92
2022/05/06 10:40:22;;;;;;;10.52;7.05;;;17.20;99.90;;;;;;4933944;29;20110;-91
2022/05/06 10:42:48;;;;;;;9.70;7.28;;;17.20;99.90;;;;;;4951354;29;20055;-95
2022/05/06 10:45:30;;;;;;;10.27;7.32;;;17.30;99.90;;;;;;4946013;29;20412;-89
2022/05/06 10:47:57;;;;;;;10.38;7.80;;;17.30;99.90;;;;;;4952148;28;20381;-89
2022/05/06 10:50:25;;;;;;;9.65;8.20;;;17.30;99.90;;;;;;4952039;29;20065;-93
2022/05/06 10:52:51;;;;;;;10.18;7.45;;;17.30;99.90;;;;;;4954270;29;20059;-92
2022/05/06 10:55:18;;;;;;;10.32;7.53;;;17.30;99.90;;;;;;4954210;29;20039;-93
2022/05/06 10:58:04;;;;;;;10.40;7.60;;;17.30;99.90;;;;;;4952967;29;20370;-94
2022/05/06 11:00:33;;;;;;;9.07;7.30;;;17.40;99.90;;;;;;4953613;29;20054;-94
2022/05/06 11:02:59;;;;;;;11.15;8.40;;;17.50;99.90;;;;;;4953352;28;20102;-93
2022/05/06 11:05:26;;;;;;;9.65;7.63;;;17.50;99.90;;;;;;4952192;29;20046;-94
2022/05/06 11:07:55;;;;;;;9.18;7.53;;;17.60;99.90;;;;;;4953552;29;20130;-91
2022/05/06 11:10:23;;;;;;;9.15;7.32;;;17.70;99.90;;;;;;4922236;29;20086;-93
2022/05/06 11:12:54;;;;;;;9.73;7.10;;;17.80;99.90;;;;;;4939556;29;20044;-92
2022/05/06 11:15:30;;;;;;;9.63;6.87;;;18.00;99.90;;;;;;4940693;29;20138;-92
2022/05/06 11:18:01;;;;;;;9.40;6.00;;;18.00;99.90;;;;;;4952976;29;20704;-96
2022/05/06 11:20:29;;;;;;;8.98;6.38;;;18.10;99.90;;;;;;4952894;29;20051;-95
2022/05/06 11:23:02;;;;;;;8.32;5.75;;;18.20;99.90;;;;;;4953868;29;20063;-92
2022/05/06 11:25:48;;;;;;;10.50;6.90;;;18.30;99.90;;;;;;4951815;29;20126;-91
2022/05/06 11:28:20;;;;;;;9.05;6.53;;;18.20;99.90;;;;;;4935013;29;20051;-92
2022/05/06 11:30:48;;;;;;;8.25;5.82;;;18.40;99.90;;;;;;4951399;29;20051;-89
2022/05/06 11:33:24;;;;;;;8.02;5.20;;;18.30;99.90;;;;;;4950932;29;20039;-90
2022/05/06 11:36:01;;;;;;;8.90;6.38;;;18.40;99.90;;;;;;4951632;29;20048;-96
2022/05/06 11:38:30;;;;;;;9.02;6.60;;;18.50;99.90;;;;;;4951070;28;20454;-90
2022/05/06 11:40:55;;;;;;;9.52;6.18;;;18.60;99.90;;;;;;4924018;29;20079;-92
2022/05/06 11:43:21;;;;;;;8.88;5.95;;;18.70;99.90;;;;;;4955893;29;20101;-91
2022/05/06 11:48:39;;;;;;;8.95;6.65;;;18.90;99.90;;;;;;4947935;29;20054;-92
2022/05/06 11:51:05;;;;;;;9.20;6.47;;;18.90;99.90;;;;;;4956424;29;20047;-93
2022/05/06 11:53:32;;;;;;;9.52;6.10;;;19.00;99.90;;;;;;4943145;29;20054;-94
2022/05/06 11:55:59;;;;;;;8.10;5.53;;;19.00;99.90;;;;;;4947540;29;20051;-94
2022/05/06 11:58:25;;;;;;;10.38;5.03;;;19.10;99.90;;;;;;4954110;29;20079;-94
2022/05/06 12:00:53;;;;;;;8.52;5.45;;;19.20;99.90;;;;;;4947470;29;20413;-93
2022/05/06 12:03:19;;;;;;;7.70;4.68;;;19.20;99.90;;;;;;4956564;29;20463;-94
2022/05/06 12:06:07;;;;;;;7.18;4.38;;;19.20;99.90;;;;;;4960063;29;20093;-95
2022/05/06 12:08:36;;;;;;;9.93;4.95;;;19.20;99.90;;;;;;4959084;29;20071;-95
2022/05/06 12:11:07;;;;;;;8.48;4.07;;;19.30;99.90;;;;;;4961263;29;20464;-96
2022/05/06 12:13:38;;;;;;;6.30;3.70;;;19.30;99.90;;;;;;4953429;29;20043;-93
2022/05/06 12:16:12;;;;;;;8.32;3.50;;;19.30;99.90;;;;;;4955585;29;20055;-92
2022/05/06 12:18:51;;;;;;;7.10;2.60;;;19.20;99.90;;;;;;4947320;29;20071;-93
2022/05/06 12:21:22;;;;;;;8.95;2.50;;;19.20;99.90;;;;;;4943693;29;20101;-94
2022/05/06 12:23:59;;;;;;;5.93;2.28;;;19.10;99.90;;;;;;4957876;29;20040;-91
2022/05/06 12:26:30;;;;;;;4.65;1.98;;;19.10;99.90;;;;;;4955994;29;20051;-95
2022/05/06 12:28:55;;;;;;;4.20;1.77;;;19.10;99.90;;;;;;4957023;29;20043;-96
2022/05/06 12:31:32;;;;;;;4.47;1.67;;;19.20;99.90;;;;;;4956108;29;20176;-90
2022/05/06 12:34:07;;;;;;;5.75;2.08;;;19.20;98.00;;;;;;4941826;29;20051;-91
2022/05/06 12:36:34;;;;;;;5.90;2.10;;;19.10;98.40;;;;;;4939257;29;20048;-91
2022/05/06 12:39:00;;;;;;;4.13;2.20;;;19.10;98.90;;;;;;4941573;29;20091;-91
2022/05/06 12:41:32;;;;;;;4.35;1.90;;;19.10;98.90;;;;;;4942561;29;20103;-93
2022/05/06 12:44:17;;;;;;;6.72;2.60;;;19.10;99.00;;;;;;4954424;29;20043;-92
2022/05/06 12:46:43;;;;;;;6.75;2.40;;;19.20;99.50;;;;;;4952240;29;20135;-95
2022/05/06 12:51:53;;;;;;;7.30;3.25;;;19.20;99.80;;;;;;4972638;28;20102;-94
2022/05/06 12:54:19;;;;;;;6.90;2.88;;;19.20;99.90;;;;;;4955920;29;20051;-92
2022/05/06 12:56:44;;;;;;;7.10;2.90;;;19.30;99.90;;;;;;4961336;29;20053;-90
2022/05/06 12:59:10;;;;;;;6.65;2.88;;;19.30;99.90;;;;;;4963247;29;20043;-90
2022/05/06 13:01:37;;;;;;;7.13;3.10;;;19.40;99.50;;;;;;4947988;29;20551;-94
2022/05/06 13:04:03;;;;;;;5.18;2.60;;;19.40;99.20;;;;;;4943528;29;20043;-91
2022/05/06 13:06:33;;;;;;;5.60;2.70;;;19.50;99.50;;;;;;4952058;29;20043;-92
2022/05/06 13:08:59;;;;;;;6.47;2.90;;;19.60;99.40;;;;;;4949510;29;20047;-90
2022/05/06 13:11:25;;;;;;;6.60;3.45;;;19.80;99.60;;;;;;4958075;28;20050;-94
2022/05/06 13:13:51;;;;;;;6.60;3.40;;;19.80;99.50;;;;;;4930304;29;20467;-92
2022/05/06 13:16:17;;;;;;;6.70;3.80;;;19.80;99.40;;;;;;4946952;29;20112;-91
2022/05/06 13:18:42;;;;;;;7.68;3.53;;;20.00;99.90;;;;;;4938851;29;20140;-91
2022/05/06 13:21:12;;;;;;;6.80;4.18;;;19.90;99.90;;;;;;4952938;29;20094;-91
2022/05/06 13:23:42;;;;;;;7.35;3.90;;;19.90;99.80;;;;;;4957532;29;20042;-95